Jupiter, FL (33458)

3:11 PM EST on February 11, 2016 (GMT -0500)
JUPITER RIVER | | Change Station
CLOSE
Current Station
Personal Weather Station
Location: Jupiter, FL
Elevation: 14 ft
Nearby Weather Stations

Elev 14 ft 26.93 °N, 80.11 °W | Updated 11 seconds ago

Partly Cloudy
Partly Cloudy
66.2 °F
Feels Like 66.2 °F
N
1.0
Wind Variable Wind from NE
Gusts 5.0 mph

Today
High -- | Low -- °F
--% Chance of Precip.
Yesterday
High -- | Low -- °F
Precip. -- in
Pressure 30.27 in
Visibility 10.0 miles
Clouds Few 7000 ft
Mostly Cloudy 25000 ft
Dew Point 42 °F
Humidity 41%
Rainfall 0.00 in
Snow Depth Not available.
7:00 AM 6:09 PM
Waxing Crescent, 14% visible
METAR KPBI 111953Z 03007KT 10SM FEW070 BKN250 19/02 A3027 RMK AO2 SLP249 T01940022 $
Pressure 30.27 in
Visibility 10.0 miles
Clouds Few 7000 ft
Mostly Cloudy 25000 ft
Dew Point 42 °F
Humidity 41%
Rainfall 0.00 in
Snow Depth Not available.
7:00 AM 6:09 PM
Waxing Crescent, 14% visible
METAR KPBI 111953Z 03007KT 10SM FEW070 BKN250 19/02 A3027 RMK AO2 SLP249 T01940022 $

10-Day Weather Forecast

Almanac

Astronomy

Feb. 11, 2016 Rise Set
Actual Time
Civil Twilight
Nautical Twilight
Astronomical Twilight
Moon
Length of Visible Light
Length of Day
Tomorrow will be .
, % of the Moon is Illuminated

Today's Extremes

State Highs State Lows

Community

WunderPhotos

Upload Photos

1,892,146 photos uploaded!

WunderBlog® & News

Nearby

Air Quality

  Air Quality AQ Index Pollutant
Not available.

Snow Depth

Station Depth Elevation

Earthquake Activity

City Distance Mag. Time & Date
Minimum magnitude displayed is 2.5.

Coastal Water Temperatures

Place Temperature

Stations

Nearby Weather Stations

Station Location Temp. Windchill Dew Point Humidity Wind Precip. Elev Updated Type
                   

Watches & Warnings

There are currently no watches in effect.